Time;durP1;ratioP1;P1;durP2;ratioP2;P2;SDS_P1;SDS_P2;PMS_P1;PMS_P2;Temp;Humidity;BMP_temperature;BMP_pressure;BME280_temperature;BME280_humidity;BME280_pressure;Samples;Min_cycle;Max_cycle;Signal;HPM_P1;HPM_P2
2023/01/10 00:02:09;;;;;;;2.10;1.70;;;;;;;5.78;100.00;100082.38;5013407;28;20323;-75
2023/01/10 00:04:34;;;;;;;2.23;1.40;;;;;;;5.80;100.00;100087.50;4998855;28;20589;-74
2023/01/10 00:07:00;;;;;;;2.10;1.40;;;;;;;5.82;100.00;100092.69;5002811;28;20198;-74
2023/01/10 00:09:25;;;;;;;1.60;1.50;;;;;;;5.84;100.00;100086.69;4997993;28;20182;-75
2023/01/10 00:14:34;;;;;;;1.57;1.37;;;;;;;5.86;100.00;100094.41;4999071;28;20182;-74
2023/01/10 00:17:02;;;;;;;1.80;1.50;;;;;;;5.84;100.00;100096.97;4993332;28;20206;-74
2023/01/10 00:19:27;;;;;;;1.30;1.10;;;;;;;5.85;100.00;100102.94;4995260;28;20224;-74
2023/01/10 00:21:53;;;;;;;1.40;1.10;;;;;;;5.85;100.00;100108.09;4995291;28;20743;-76
2023/01/10 00:24:18;;;;;;;1.50;1.30;;;;;;;5.85;100.00;100108.97;4997763;28;20205;-75
2023/01/10 00:26:49;;;;;;;1.60;1.50;;;;;;;5.84;100.00;100114.06;4991822;28;20194;-74
2023/01/10 00:29:16;;;;;;;1.90;1.70;;;;;;;5.83;100.00;100120.94;4994299;28;20597;-73
2023/01/10 00:31:42;;;;;;;1.83;1.73;;;;;;;5.83;100.00;100135.47;5003268;28;20190;-76
2023/01/10 00:34:07;;;;;;;3.37;1.80;;;;;;;5.82;100.00;100137.19;4991926;28;20187;-74
2023/01/10 00:36:32;;;;;;;2.10;1.60;;;;;;;5.83;100.00;100154.31;4992253;28;20189;-75
2023/01/10 00:38:57;;;;;;;1.53;1.43;;;;;;;5.84;100.00;100155.16;4998552;28;20190;-75
2023/01/10 00:44:07;;;;;;;2.00;1.80;;;;;;;5.82;100.00;100162.03;4997511;28;20226;-74
2023/01/10 00:46:33;;;;;;;2.30;1.70;;;;;;;5.81;100.00;100176.56;4998177;28;20195;-75
2023/01/10 00:48:59;;;;;;;2.10;1.53;;;;;;;5.80;100.00;100185.09;4995030;28;20188;-75
2023/01/10 00:51:24;;;;;;;2.63;1.80;;;;;;;5.80;100.00;100190.25;4988793;28;21290;-75
2023/01/10 00:53:49;;;;;;;3.23;1.80;;;;;;;5.80;100.00;100191.13;4991779;28;20202;-73
2023/01/10 00:56:15;;;;;;;1.70;1.50;;;;;;;5.78;100.00;100197.94;4998436;28;20286;-75
2023/01/10 00:58:41;;;;;;;1.93;1.40;;;;;;;5.77;100.00;100203.91;5004614;28;20224;-73
2023/01/10 01:01:06;;;;;;;2.37;1.57;;;;;;;5.79;100.00;100211.63;5017776;28;20218;-73
2023/01/10 01:03:32;;;;;;;1.73;1.57;;;;;;;5.77;100.00;100215.88;5013769;28;20207;-75
2023/01/10 01:06:04;;;;;;;1.60;1.50;;;;;;;5.77;100.00;100221.03;4993647;28;20202;-74
2023/01/10 01:08:29;;;;;;;2.20;1.37;;;;;;;5.75;100.00;100231.28;4995960;28;20198;-75
2023/01/10 01:10:54;;;;;;;2.27;1.23;;;;;;;5.72;100.00;100238.97;4994003;28;20182;-73
2023/01/10 01:13:20;;;;;;;1.43;1.10;;;;;;;5.69;100.00;100246.63;5003385;28;20265;-75
2023/01/10 01:15:47;;;;;;;1.57;0.90;;;;;;;5.64;100.00;100241.44;5006620;28;20211;-75
2023/01/10 01:18:14;;;;;;;1.57;1.00;;;;;;;5.60;100.00;100255.09;5001000;28;20175;-75
2023/01/10 01:20:40;;;;;;;1.47;0.90;;;;;;;5.58;100.00;100261.06;4997730;28;20208;-74
2023/01/10 01:23:07;;;;;;;1.10;0.70;;;;;;;5.56;100.00;100280.72;4997647;28;20595;-75
2023/01/10 01:25:32;;;;;;;1.10;1.00;;;;;;;5.54;100.00;100282.41;4998417;28;20705;-76
2023/01/10 01:27:57;;;;;;;1.53;0.80;;;;;;;5.54;100.00;100308.06;4998806;28;20255;-75
2023/01/10 01:30:23;;;;;;;0.70;0.67;;;;;;;5.53;100.00;100311.47;4997382;28;20189;-74
2023/01/10 01:32:48;;;;;;;0.77;0.50;;;;;;;5.52;100.00;100314.91;4997423;28;20660;-76
2023/01/10 01:35:15;;;;;;;2.33;0.70;;;;;;;5.51;100.00;100320.88;4998207;28;20352;-75
2023/01/10 01:37:41;;;;;;;1.00;0.67;;;;;;;5.49;100.00;100321.72;4997267;28;20198;-74
2023/01/10 01:40:11;;;;;;;0.60;0.50;;;;;;;5.49;100.00;100329.44;5000694;28;20205;-74
2023/01/10 01:42:36;;;;;;;0.83;0.60;;;;;;;5.47;100.00;100336.25;5001752;28;20272;-74
2023/01/10 01:45:08;;;;;;;1.77;0.60;;;;;;;5.47;100.00;100343.06;4997945;28;20681;-75
2023/01/10 01:47:36;;;;;;;0.60;0.60;;;;;;;5.46;100.00;100351.59;5002379;28;20199;-76
2023/01/10 01:50:03;;;;;;;1.33;0.60;;;;;;;5.44;100.00;100363.59;4993556;28;20186;-75
2023/01/10 01:52:33;;;;;;;1.27;0.80;;;;;;;5.43;100.00;100369.56;5011869;28;20677;-76
2023/01/10 01:55:02;;;;;;;1.13;0.80;;;;;;;5.43;100.00;100370.41;5002918;28;20589;-74
2023/01/10 01:57:30;;;;;;;1.07;0.70;;;;;;;5.39;100.00;100389.16;4997690;28;20363;-75
2023/01/10 01:59:55;;;;;;;1.00;0.80;;;;;;;5.40;100.00;100397.75;5005655;28;20244;-76
2023/01/10 02:02:35;;;;;;;1.33;0.70;;;;;;;5.39;100.00;100406.28;5008536;28;20629;-74
2023/01/10 02:05:11;;;;;;;2.23;0.83;;;;;;;5.40;100.00;100408.00;5001583;28;20276;-75
2023/01/10 02:07:40;;;;;;;1.57;0.87;;;;;;;5.41;100.00;100414.88;5004374;28;20547;-76
2023/01/10 02:10:14;;;;;;;1.83;1.00;;;;;;;5.41;100.00;100415.72;4998512;28;20195;-75
2023/01/10 02:12:42;;;;;;;1.60;1.00;;;;;;;5.40;100.00;100419.13;5000445;28;20241;-75
2023/01/10 02:15:09;;;;;;;2.23;1.10;;;;;;;5.40;100.00;100424.25;5002031;28;20189;-74
2023/01/10 02:17:35;;;;;;;1.70;1.00;;;;;;;5.40;100.00;100431.97;5008627;28;20185;-76
2023/01/10 02:20:09;;;;;;;1.63;0.90;;;;;;;5.40;100.00;100437.09;4997255;28;20555;-75
2023/01/10 02:22:53;;;;;;;1.90;0.90;;;;;;;5.41;100.00;100438.81;4999803;28;20212;-75
2023/01/10 02:25:51;;;;;;;1.57;0.80;;;;;;;5.40;100.00;100444.78;5001008;28;20202;-75
2023/01/10 02:28:22;;;;;;;1.40;0.67;;;;;;;5.39;100.00;100453.34;5001655;28;20240;-75
2023/01/10 02:31:00;;;;;;;1.57;0.83;;;;;;;5.42;100.00;100448.25;5003725;28;20198;-74
2023/01/10 02:33:42;;;;;;;2.00;0.90;;;;;;;5.42;100.00;100458.50;5000456;28;20319;-75
2023/01/10 02:36:28;;;;;;;2.33;0.80;;;;;;;5.44;100.00;100453.41;4999332;28;20283;-74
2023/01/10 02:38:59;;;;;;;2.20;1.00;;;;;;;5.45;100.00;100452.56;5006910;28;20578;-74
2023/01/10 02:41:32;;;;;;;2.20;0.80;;;;;;;5.45;100.00;100463.69;5000475;28;20200;-74
2023/01/10 02:44:13;;;;;;;2.93;0.87;;;;;;;5.46;100.00;100467.13;4996030;28;20202;-74
2023/01/10 02:46:39;;;;;;;2.00;1.00;;;;;;;5.45;100.00;100471.41;4997546;28;20196;-74
2023/01/10 02:49:05;;;;;;;0.83;0.80;;;;;;;5.44;100.00;100471.38;5000948;28;20253;-74
2023/01/10 02:51:32;;;;;;;1.77;1.20;;;;;;;5.46;100.00;100467.13;4996556;28;20241;-74
2023/01/10 02:54:09;;;;;;;1.90;1.00;;;;;;;5.47;100.00;100474.84;4994405;28;20232;-74
2023/01/10 02:57:00;;;;;;;5.50;1.40;;;;;;;5.49;100.00;100477.44;4996735;28;20185;-75
2023/01/10 02:59:46;;;;;;;1.33;1.20;;;;;;;5.47;100.00;100482.56;4992895;28;20190;-74
2023/01/10 03:02:21;;;;;;;2.87;1.30;;;;;;;5.45;100.00;100488.50;5001056;28;20214;-73
2023/01/10 03:05:08;;;;;;;2.43;1.60;;;;;;;5.43;100.00;100490.19;4995553;28;20218;-75
2023/01/10 03:07:41;;;;;;;2.90;1.50;;;;;;;5.42;100.00;100497.00;4997424;28;20197;-74
2023/01/10 03:10:17;;;;;;;3.30;1.30;;;;;;;5.39;100.00;100501.25;4991539;28;20273;-74
2023/01/10 03:12:46;;;;;;;3.17;1.63;;;;;;;5.34;100.00;100503.75;4999670;28;20226;-76
2023/01/10 03:15:15;;;;;;;3.47;1.40;;;;;;;5.32;100.00;100503.69;5025003;28;20649;-73
2023/01/10 03:17:45;;;;;;;2.80;1.30;;;;;;;5.27;100.00;100510.47;5016208;28;20197;-73
2023/01/10 03:20:10;;;;;;;2.30;1.53;;;;;;;5.23;100.00;100516.41;5001417;28;20193;-74
2023/01/10 03:22:39;;;;;;;3.73;1.67;;;;;;;5.18;100.00;100524.03;4999243;28;20213;-74
2023/01/10 03:25:10;;;;;;;4.60;1.83;;;;;;;5.11;100.00;100526.47;4989960;28;20217;-74
2023/01/10 03:27:44;;;;;;;5.27;2.00;;;;;;;5.08;100.00;100532.38;4997672;28;20193;-74
2023/01/10 03:30:34;;;;;;;7.17;2.60;;;;;;;5.06;100.00;100528.06;4996617;28;20277;-74
2023/01/10 03:33:00;;;;;;;3.40;1.97;;;;;;;5.01;100.00;100540.81;4998241;28;20283;-74
2023/01/10 03:35:47;;;;;;;4.53;2.00;;;;;;;4.96;100.00;100540.75;4998024;28;20656;-75
2023/01/10 03:38:25;;;;;;;4.33;1.73;;;;;;;4.90;100.00;100547.47;4998412;28;20295;-74
2023/01/10 03:41:31;;;;;;;5.83;1.93;;;;;;;4.79;100.00;100557.50;4995342;28;20205;-75
2023/01/10 03:47:33;;;;;;;5.93;1.70;;;;;;;4.55;100.00;100559.63;4994556;28;20252;-74
2023/01/10 03:50:03;;;;;;;5.87;2.13;;;;;;;4.48;100.00;100556.91;4991478;28;20269;-74
2023/01/10 03:52:31;;;;;;;5.03;2.30;;;;;;;4.46;100.00;100562.00;4999944;28;20346;-74
2023/01/10 03:54:57;;;;;;;7.20;2.07;;;;;;;4.49;100.00;100566.31;4995253;28;20645;-73
2023/01/10 03:57:23;;;;;;;6.00;2.60;;;;;;;4.51;100.00;100562.09;5002961;28;20213;-74
2023/01/10 03:59:56;;;;;;;7.50;2.60;;;;;;;4.53;100.00;100579.22;5003335;28;20196;-73
2023/01/10 04:02:32;;;;;;;5.97;2.67;;;;;;;4.57;100.00;100591.28;5001467;28;20334;-75
2023/01/10 04:04:59;;;;;;;7.67;2.47;;;;;;;4.61;100.00;100601.59;5006694;28;20237;-74
2023/01/10 04:07:25;;;;;;;6.17;2.50;;;;;;;4.57;100.00;100605.78;5009549;28;20623;-73
2023/01/10 04:09:50;;;;;;;7.30;2.57;;;;;;;4.52;100.00;100612.53;5012001;28;20577;-73
2023/01/10 04:12:16;;;;;;;4.23;2.03;;;;;;;4.49;100.00;100623.56;5007932;28;20696;-73
2023/01/10 04:14:44;;;;;;;6.27;2.63;;;;;;;4.50;100.00;100630.41;5003744;28;20180;-73
2023/01/10 04:17:10;;;;;;;8.90;2.73;;;;;;;4.53;100.00;100625.38;5005598;28;20188;-75
2023/01/10 04:19:35;;;;;;;8.37;2.90;;;;;;;4.64;100.00;100633.28;5006672;28;20246;-74
2023/01/10 04:22:00;;;;;;;7.43;2.70;;;;;;;4.70;100.00;100641.09;5005342;28;20695;-76
2023/01/10 04:24:26;;;;;;;8.53;2.87;;;;;;;4.75;100.00;100627.50;4996133;28;20287;-74
2023/01/10 04:26:51;;;;;;;7.83;3.00;;;;;;;4.81;100.00;100633.63;4993941;28;20196;-74
2023/01/10 04:29:16;;;;;;;5.27;2.40;;;;;;;4.83;100.00;100639.66;4994506;28;20191;-74
2023/01/10 04:31:42;;;;;;;7.03;3.03;;;;;;;4.90;100.00;100634.66;5000896;28;20198;-72
2023/01/10 04:34:08;;;;;;;7.60;3.23;;;;;;;4.93;100.00;100637.25;4996704;28;20299;-73
2023/01/10 04:36:34;;;;;;;8.77;2.97;;;;;;;4.95;100.00;100640.72;5000623;28;20192;-74
2023/01/10 04:38:59;;;;;;;5.97;2.70;;;;;;;4.95;100.00;100639.03;4995667;28;20186;-74
2023/01/10 04:41:25;;;;;;;8.47;3.33;;;;;;;4.97;100.00;100641.63;5010849;28;20191;-74
2023/01/10 04:43:50;;;;;;;8.40;3.43;;;;;;;4.98;100.00;100648.47;5001578;28;20208;-74
2023/01/10 04:46:16;;;;;;;7.70;2.73;;;;;;;4.98;100.00;100654.50;4998978;28;20191;-74
2023/01/10 04:48:41;;;;;;;6.03;2.90;;;;;;;4.97;100.00;100662.16;4999221;28;20618;-74
2023/01/10 04:51:06;;;;;;;6.87;3.10;;;;;;;5.00;100.00;100662.22;4996281;28;20196;-73
2023/01/10 04:53:32;;;;;;;11.07;3.10;;;;;;;4.99;100.00;100658.75;4998916;28;20263;-74
2023/01/10 04:56:03;;;;;;;8.47;3.27;;;;;;;5.01;100.00;100671.63;5001008;28;20193;-74
2023/01/10 04:58:28;;;;;;;6.57;2.83;;;;;;;5.00;100.00;100663.06;4996079;28;20197;-75
2023/01/10 05:00:53;;;;;;;9.70;3.17;;;;;;;5.01;100.00;100669.94;4999338;28;20192;-73
2023/01/10 05:03:19;;;;;;;4.80;2.73;;;;;;;5.03;100.00;100675.09;4998190;28;20227;-74
2023/01/10 05:05:44;;;;;;;5.67;2.57;;;;;;;5.00;100.00;100683.59;4995468;28;20226;-74
2023/01/10 05:08:10;;;;;;;9.07;3.13;;;;;;;5.02;100.00;100689.63;4996347;28;20273;-74
2023/01/10 05:10:35;;;;;;;6.20;2.33;;;;;;;5.02;100.00;100694.75;4991878;28;20690;-75
2023/01/10 05:13:00;;;;;;;5.77;2.70;;;;;;;5.03;100.00;100706.75;4996968;28;20214;-74
2023/01/10 05:15:25;;;;;;;5.83;2.17;;;;;;;5.04;100.00;100715.31;4997736;28;20192;-74
2023/01/10 05:17:57;;;;;;;5.10;2.30;;;;;;;5.04;100.00;100705.91;4995938;28;20964;-74
2023/01/10 05:20:22;;;;;;;7.37;2.77;;;;;;;5.06;100.00;100708.53;4988415;28;21811;-74
2023/01/10 05:22:48;;;;;;;6.37;2.30;;;;;;;5.06;100.00;100708.53;5001455;28;20208;-74
2023/01/10 05:25:13;;;;;;;6.60;2.50;;;;;;;5.08;100.00;100714.53;4995699;28;20221;-75
2023/01/10 05:27:42;;;;;;;7.90;3.00;;;;;;;5.09;100.00;100708.56;5012379;28;20238;-73
2023/01/10 05:30:10;;;;;;;4.93;2.47;;;;;;;5.07;100.00;100723.06;5019609;28;20190;-72
2023/01/10 05:32:36;;;;;;;5.17;2.23;;;;;;;5.08;100.00;100713.66;4998641;28;20242;-75
2023/01/10 05:35:01;;;;;;;7.07;2.63;;;;;;;5.08;100.00;100721.38;5001768;28;20221;-73
2023/01/10 05:37:26;;;;;;;7.67;2.80;;;;;;;5.09;100.00;100723.09;5002601;28;20591;-73
2023/01/10 05:39:52;;;;;;;8.30;2.90;;;;;;;5.10;100.00;100725.69;4993434;28;20226;-73
2023/01/10 05:42:17;;;;;;;7.70;2.60;;;;;;;5.09;100.00;100723.94;4995791;28;20765;-76
2023/01/10 05:44:42;;;;;;;5.50;2.80;;;;;;;5.09;100.00;100723.94;4995306;28;20454;-76
2023/01/10 05:47:07;;;;;;;10.23;3.47;;;;;;;5.10;100.00;100724.84;4995764;28;20563;-74
2023/01/10 05:49:33;;;;;;;6.93;2.77;;;;;;;5.08;100.00;100731.63;4991923;28;20249;-78
2023/01/10 05:51:58;;;;;;;5.77;2.87;;;;;;;5.08;100.00;100731.63;4998973;28;20224;-74
2023/01/10 05:54:23;;;;;;;8.37;3.27;;;;;;;5.06;100.00;100731.63;4998840;28;20199;-73
2023/01/10 05:56:49;;;;;;;6.00;3.07;;;;;;;5.05;100.00;100737.56;5005151;28;20304;-75
2023/01/10 05:59:14;;;;;;;7.17;2.93;;;;;;;5.05;100.00;100742.69;5010815;28;20186;-73
2023/01/10 06:01:39;;;;;;;10.13;4.00;;;;;;;5.02;100.00;100746.03;5004598;28;20185;-74
2023/01/10 06:04:05;;;;;;;8.50;3.63;;;;;;;5.04;100.00;100758.94;4999726;28;20214;-74
2023/01/10 06:06:30;;;;;;;7.67;3.50;;;;;;;5.00;100.00;100752.84;4999969;28;20196;-74
2023/01/10 06:08:57;;;;;;;6.20;3.13;;;;;;;5.03;100.00;100758.03;5011885;28;20206;-75
2023/01/10 06:11:28;;;;;;;6.03;2.90;;;;;;;5.03;100.00;100760.59;4998781;28;20206;-74
2023/01/10 06:13:54;;;;;;;6.90;2.93;;;;;;;5.03;100.00;100757.19;5000646;28;20700;-75
2023/01/10 06:16:20;;;;;;;7.20;3.10;;;;;;;5.03;100.00;100767.47;5002247;28;20228;-73
2023/01/10 06:18:45;;;;;;;11.23;3.00;;;;;;;5.03;100.00;100765.75;4994573;28;20751;-75
2023/01/10 06:21:11;;;;;;;9.27;3.63;;;;;;;5.07;100.00;100768.38;5002522;28;20268;-73
2023/01/10 06:23:36;;;;;;;6.67;2.93;;;;;;;5.03;100.00;100770.03;5001797;28;20203;-73
2023/01/10 06:26:01;;;;;;;9.47;2.90;;;;;;;5.04;100.00;100772.59;5001112;28;20187;-72
2023/01/10 06:28:26;;;;;;;8.17;3.30;;;;;;;5.06;100.00;100766.63;5004325;28;20207;-74
2023/01/10 06:30:52;;;;;;;9.33;3.67;;;;;;;5.04;100.00;100775.16;4999085;28;20183;-74
2023/01/10 06:33:17;;;;;;;5.63;2.97;;;;;;;5.02;100.00;100774.25;5001943;28;20245;-74
2023/01/10 06:35:45;;;;;;;9.63;3.27;;;;;;;5.02;100.00;100783.69;4999789;28;20202;-73
2023/01/10 06:38:11;;;;;;;9.30;3.33;;;;;;;5.03;100.00;100786.25;4996303;28;20198;-76
2023/01/10 06:40:36;;;;;;;7.53;3.17;;;;;;;5.03;100.00;100795.66;5001825;28;20232;-72
2023/01/10 06:43:01;;;;;;;10.07;3.30;;;;;;;5.00;100.00;100806.72;5001672;28;20213;-72
2023/01/10 06:45:27;;;;;;;5.20;2.37;;;;;;;5.01;100.00;100823.84;4998426;28;20519;-73
2023/01/10 06:47:52;;;;;;;7.17;2.73;;;;;;;5.02;100.00;100833.28;4996550;28;20188;-73
2023/01/10 06:50:17;;;;;;;5.43;2.60;;;;;;;5.05;100.00;100842.75;4994752;28;20237;-73
2023/01/10 06:52:43;;;;;;;6.23;2.93;;;;;;;5.07;100.00;100835.09;4993100;28;20293;-73
2023/01/10 06:55:08;;;;;;;9.03;2.97;;;;;;;5.10;100.00;100837.72;5003738;28;20182;-74
2023/01/10 06:57:37;;;;;;;7.83;3.43;;;;;;;5.08;100.00;100829.13;5004888;28;20280;-74
2023/01/10 07:00:08;;;;;;;7.67;2.93;;;;;;;5.02;100.00;100827.28;5003932;28;20274;-74
2023/01/10 07:02:33;;;;;;;6.50;2.53;;;;;;;4.90;100.00;100827.88;4999619;28;20213;-74
2023/01/10 07:04:58;;;;;;;6.63;3.07;;;;;;;4.80;100.00;100834.47;5003722;28;20235;-74
2023/01/10 07:07:24;;;;;;;8.83;3.07;;;;;;;4.72;100.00;100839.41;5005579;28;20567;-74
2023/01/10 07:09:49;;;;;;;6.00;2.70;;;;;;;4.68;100.00;100854.69;5004081;28;20646;-72
2023/01/10 07:12:14;;;;;;;7.77;3.07;;;;;;;4.67;100.00;100858.09;5013689;28;20213;-72
2023/01/10 07:14:40;;;;;;;6.50;3.00;;;;;;;4.67;100.00;100856.41;5008601;28;20196;-73
2023/01/10 07:17:05;;;;;;;7.27;2.93;;;;;;;4.69;100.00;100864.13;5006373;28;20216;-73
2023/01/10 07:19:31;;;;;;;6.77;3.33;;;;;;;4.72;100.00;100864.22;5004273;28;20215;-74
2023/01/10 07:21:57;;;;;;;7.67;3.23;;;;;;;4.75;100.00;100871.09;5003235;28;20208;-73
2023/01/10 07:24:22;;;;;;;9.43;3.80;;;;;;;4.78;100.00;100879.72;5003951;28;20213;-74
2023/01/10 07:26:47;;;;;;;6.00;3.20;;;;;;;4.81;100.00;100878.94;5002197;28;20246;-72
2023/01/10 07:29:13;;;;;;;8.13;3.40;;;;;;;4.85;100.00;100885.88;5002308;28;20202;-73
2023/01/10 07:31:38;;;;;;;8.13;3.33;;;;;;;4.85;100.00;100891.88;5002366;28;20189;-74
2023/01/10 07:34:03;;;;;;;5.90;2.87;;;;;;;4.87;100.00;100882.53;5000283;28;20691;-73
2023/01/10 07:36:29;;;;;;;6.53;3.10;;;;;;;4.91;100.00;100880.91;4998128;28;20919;-74
2023/01/10 07:38:54;;;;;;;6.30;3.07;;;;;;;4.95;100.00;100881.81;4998291;28;20211;-73
2023/01/10 07:41:19;;;;;;;9.60;3.80;;;;;;;4.98;100.00;100889.59;4998204;28;20191;-72
2023/01/10 07:43:45;;;;;;;6.07;3.73;;;;;;;5.00;100.00;100895.63;5015162;28;20212;-74
2023/01/10 07:46:11;;;;;;;8.60;3.80;;;;;;;5.03;100.00;100906.84;5021238;28;20193;-73
2023/01/10 07:48:37;;;;;;;6.83;3.00;;;;;;;5.08;100.00;100906.09;5000794;28;20194;-73
2023/01/10 07:51:04;;;;;;;8.37;3.27;;;;;;;5.12;100.00;100913.88;4994628;28;20271;-74
2023/01/10 07:53:29;;;;;;;9.17;3.90;;;;;;;5.17;100.00;100911.41;5000622;28;20198;-73
2023/01/10 07:56:00;;;;;;;6.43;3.47;;;;;;;5.17;100.00;100907.16;5004525;28;20181;-73
2023/01/10 07:58:25;;;;;;;7.43;3.57;;;;;;;5.16;100.00;100901.97;4998701;28;21715;-74
2023/01/10 08:00:51;;;;;;;6.87;3.90;;;;;;;5.15;100.00;100918.22;4999348;28;20214;-73
2023/01/10 08:03:17;;;;;;;8.00;3.90;;;;;;;5.10;100.00;100919.81;5000398;28;20255;-73
2023/01/10 08:05:43;;;;;;;6.43;3.70;;;;;;;5.09;100.00;100925.78;5001111;28;20235;-72
2023/01/10 08:08:10;;;;;;;8.50;3.73;;;;;;;5.12;100.00;100933.56;5000305;28;20530;-73
2023/01/10 08:10:37;;;;;;;8.73;3.80;;;;;;;5.16;100.00;100935.34;4999741;28;20254;-74
2023/01/10 08:13:03;;;;;;;7.23;3.10;;;;;;;5.20;100.00;100921.75;5004204;28;20221;-75
2023/01/10 08:15:29;;;;;;;7.50;3.27;;;;;;;5.27;100.00;100925.34;5003959;28;20669;-74
2023/01/10 08:17:58;;;;;;;5.93;2.87;;;;;;;5.33;100.00;100925.50;5003514;28;20231;-72
2023/01/10 08:20:24;;;;;;;5.93;3.17;;;;;;;5.39;100.00;100935.03;5001447;28;20199;-71
2023/01/10 08:22:49;;;;;;;7.10;3.70;;;;;;;5.45;100.00;100936.03;4999480;28;20206;-73
2023/01/10 08:25:14;;;;;;;8.70;3.63;;;;;;;5.51;100.00;100934.44;5003120;28;20705;-74
2023/01/10 08:27:40;;;;;;;5.10;2.90;;;;;;;5.56;100.00;100943.09;4997516;28;20641;-73
2023/01/10 08:30:06;;;;;;;6.53;3.10;;;;;;;5.59;100.00;100946.63;5004082;28;20191;-73
2023/01/10 08:32:32;;;;;;;9.17;3.47;;;;;;;5.64;100.00;100952.69;5004681;28;20201;-73
2023/01/10 08:34:57;;;;;;;5.73;3.13;;;;;;;5.67;100.00;100953.59;4997441;28;20176;-72
2023/01/10 08:37:22;;;;;;;6.50;3.23;;;;;;;5.69;100.00;100957.09;4997208;28;20257;-72
2023/01/10 08:39:48;;;;;;;7.33;3.47;;;;;;;5.74;100.00;100961.47;4995967;28;20185;-75
2023/01/10 08:42:15;;;;;;;7.83;2.77;;;;;;;5.76;100.00;100975.22;5003980;28;20210;-74
2023/01/10 08:44:40;;;;;;;5.83;3.10;;;;;;;5.80;100.00;100964.19;4998488;28;20218;-72
2023/01/10 08:47:06;;;;;;;7.20;2.73;;;;;;;5.81;100.00;100972.75;5001273;28;20194;-74
2023/01/10 08:49:31;;;;;;;6.60;2.70;;;;;;;5.81;100.00;100977.88;4995916;28;20641;-73
2023/01/10 08:51:56;;;;;;;5.33;2.70;;;;;;;5.86;100.00;100972.84;5003386;28;20203;-73
2023/01/10 08:54:22;;;;;;;5.43;2.70;;;;;;;5.86;100.00;100971.16;5001488;28;20178;-73
2023/01/10 08:56:47;;;;;;;5.37;2.70;;;;;;;5.87;100.00;100974.59;4993440;28;20221;-73
2023/01/10 08:59:12;;;;;;;6.83;3.37;;;;;;;5.92;100.00;100968.69;4999854;28;20198;-74
2023/01/10 09:01:38;;;;;;;5.13;2.47;;;;;;;5.93;100.00;100964.44;4995562;28;20248;-75
2023/01/10 09:04:04;;;;;;;3.97;2.37;;;;;;;5.98;100.00;100965.38;4994303;28;20276;-74
2023/01/10 09:06:29;;;;;;;4.60;2.50;;;;;;;6.05;100.00;100967.28;5002329;28;20213;-73
2023/01/10 09:08:54;;;;;;;6.03;2.50;;;;;;;6.14;100.00;100965.75;5002471;28;20222;-73
2023/01/10 09:11:20;;;;;;;6.20;2.53;;;;;;;6.19;100.00;100977.88;4997785;28;20282;-73
2023/01/10 09:13:49;;;;;;;6.00;2.63;;;;;;;6.22;100.00;100983.06;4999660;28;20275;-72
2023/01/10 09:16:15;;;;;;;5.53;2.77;;;;;;;6.28;100.00;100982.31;4997740;28;20197;-72
2023/01/10 09:18:41;;;;;;;6.30;2.97;;;;;;;6.31;100.00;100974.66;4993334;28;20194;-74
2023/01/10 09:21:06;;;;;;;7.30;2.40;;;;;;;6.34;100.00;100979.88;5001226;28;20195;-73
2023/01/10 09:23:31;;;;;;;6.13;2.53;;;;;;;6.38;100.00;100983.34;5002934;28;20268;-72
2023/01/10 09:25:59;;;;;;;6.07;2.70;;;;;;;6.44;100.00;100992.88;5000113;28;20228;-73
2023/01/10 09:28:24;;;;;;;5.60;2.60;;;;;;;6.50;100.00;100999.03;4994480;28;20624;-73
2023/01/10 09:30:50;;;;;;;4.70;2.23;;;;;;;6.53;100.00;100993.94;4993462;28;20660;-73
2023/01/10 09:33:16;;;;;;;3.70;2.07;;;;;;;6.55;100.00;100999.97;4996411;28;20260;-75
2023/01/10 09:35:42;;;;;;;2.93;1.87;;;;;;;6.63;100.00;100994.13;5002712;28;20240;-73
2023/01/10 09:38:10;;;;;;;4.63;2.60;;;;;;;6.72;100.00;101004.56;4998945;28;20195;-74
2023/01/10 09:41:03;;;;;;;4.07;2.13;;;;;;;6.81;100.00;101003.88;5001108;28;20329;-73
2023/01/10 09:44:02;;;;;;;5.63;2.37;;;;;;;6.89;100.00;101016.88;4996480;28;20692;-72
2023/01/10 09:46:55;;;;;;;5.07;2.40;;;;;;;6.96;100.00;101014.44;5002099;28;20214;-73
2023/01/10 09:49:44;;;;;;;5.73;2.57;;;;;;;7.02;100.00;101016.25;5000445;28;20188;-72
2023/01/10 09:52:22;;;;;;;4.30;2.17;;;;;;;7.10;100.00;101018.97;4998879;28;21046;-72
2023/01/10 09:54:51;;;;;;;5.73;2.20;;;;;;;7.15;100.00;101019.91;5001135;28;20180;-72
2023/01/10 09:57:19;;;;;;;2.47;1.80;;;;;;;7.15;100.00;101031.06;5002036;28;20193;-73
2023/01/10 09:59:49;;;;;;;5.53;2.20;;;;;;;7.22;100.00;101029.47;5002389;28;20978;-73
2023/01/10 10:02:35;;;;;;;3.67;1.97;;;;;;;7.30;100.00;101027.91;5021969;28;20219;-73
2023/01/10 10:05:19;;;;;;;4.07;2.03;;;;;;;7.32;100.00;101031.38;5010550;28;20681;-73
2023/01/10 10:07:49;;;;;;;4.63;1.97;;;;;;;7.41;100.00;101029.78;5000404;28;20188;-73
2023/01/10 10:10:36;;;;;;;3.27;2.10;;;;;;;7.54;100.00;101039.41;5004085;28;20576;-72
2023/01/10 10:13:43;;;;;;;3.63;1.97;;;;;;;7.63;100.00;101030.97;4999271;28;20207;-73
2023/01/10 10:16:42;;;;;;;4.97;2.00;;;;;;;7.71;100.00;101026.81;5002218;28;20189;-74
2023/01/10 10:19:35;;;;;;;3.57;2.30;;;;;;;7.81;100.00;101021.78;5004345;28;21068;-75
2023/01/10 10:22:03;;;;;;;5.50;2.33;;;;;;;7.86;100.00;101020.16;5002955;28;20213;-73
2023/01/10 10:24:51;;;;;;;5.87;2.27;;;;;;;7.93;100.00;101024.53;5003924;28;20272;-74
2023/01/10 10:27:39;;;;;;;3.70;1.97;;;;;;;7.99;100.00;101028.91;5004299;28;20547;-73
2023/01/10 10:30:24;;;;;;;4.10;2.10;;;;;;;8.04;100.00;101022.94;5003905;28;20927;-73
2023/01/10 10:33:02;;;;;;;4.17;1.90;;;;;;;8.07;100.00;101023.00;5003248;28;20215;-73
2023/01/10 10:35:38;;;;;;;3.80;2.10;;;;;;;8.08;100.00;101021.31;5005856;28;20188;-73
2023/01/10 10:38:29;;;;;;;3.00;1.60;;;;;;;8.09;100.00;101029.03;5005212;28;20207;-75
2023/01/10 10:40:57;;;;;;;4.90;2.20;;;;;;;8.16;100.00;101026.56;5003275;28;20217;-73
2023/01/10 10:43:30;;;;;;;4.87;2.00;;;;;;;8.32;100.00;101022.44;5002423;28;20692;-74
2023/01/10 10:46:11;;;;;;;4.07;2.33;;;;;;;8.44;100.00;101025.16;5008043;28;20184;-73
2023/01/10 10:48:59;;;;;;;5.80;2.53;;;;;;;8.46;100.00;101027.78;5003600;28;20202;-74
2023/01/10 10:51:44;;;;;;;3.77;2.00;;;;;;;8.45;100.00;101026.06;4994067;28;20746;-73
2023/01/10 10:54:13;;;;;;;3.67;1.63;;;;;;;8.48;100.00;101032.13;4996056;28;20180;-73
2023/01/10 10:56:40;;;;;;;3.27;1.80;;;;;;;8.53;100.00;101032.19;5017354;28;20200;-74
2023/01/10 10:59:05;;;;;;;4.60;2.10;;;;;;;8.58;100.00;101033.09;5002069;28;20189;-73
2023/01/10 11:01:31;;;;;;;3.30;1.60;;;;;;;8.56;100.00;101028.75;4999064;28;20196;-74
2023/01/10 11:04:12;;;;;;;3.67;1.93;;;;;;;8.52;100.00;101022.72;5006692;28;20639;-74
2023/01/10 11:06:40;;;;;;;3.77;1.87;;;;;;;8.51;99.95;101026.13;5004519;28;20275;-73
2023/01/10 11:09:06;;;;;;;3.20;1.53;;;;;;;8.48;99.57;101031.25;4997626;28;20215;-75
2023/01/10 11:11:42;;;;;;;3.50;1.90;;;;;;;8.47;99.08;101030.38;4997125;28;20199;-73
2023/01/10 11:14:08;;;;;;;5.37;2.03;;;;;;;8.43;98.69;101027.75;5003860;28;20348;-74
2023/01/10 11:16:43;;;;;;;3.00;1.77;;;;;;;8.45;99.35;101019.16;5003306;28;20652;-74
2023/01/10 11:19:22;;;;;;;3.43;1.90;;;;;;;8.50;98.95;101024.41;5005200;28;20192;-73
2023/01/10 11:22:01;;;;;;;5.03;2.07;;;;;;;8.50;98.75;101022.69;5004796;28;20188;-73
2023/01/10 11:24:36;;;;;;;4.27;2.00;;;;;;;8.46;98.81;101018.31;5005294;28;20278;-74
2023/01/10 11:27:24;;;;;;;6.73;2.40;;;;;;;8.44;98.69;101016.56;5005358;28;20659;-73
2023/01/10 11:30:05;;;;;;;6.87;2.60;;;;;;;8.50;98.67;101017.53;5005060;28;20188;-75
2023/01/10 11:32:39;;;;;;;4.50;1.97;;;;;;;8.66;98.41;101017.72;5006066;28;20287;-72
2023/01/10 11:35:16;;;;;;;5.33;2.27;;;;;;;8.85;98.05;101005.84;4996364;28;20197;-74
2023/01/10 11:37:41;;;;;;;4.77;2.40;;;;;;;8.96;97.91;101014.56;5003638;28;20270;-74
2023/01/10 11:40:22;;;;;;;4.87;2.03;;;;;;;9.11;97.45;101005.22;4998030;28;20188;-74
2023/01/10 11:42:48;;;;;;;5.43;2.90;;;;;;;9.20;97.28;100999.28;4999942;28;20234;-73
2023/01/10 11:45:16;;;;;;;5.63;2.50;;;;;;;9.22;96.97;101003.63;5001618;28;20227;-75
2023/01/10 11:47:45;;;;;;;4.97;2.17;;;;;;;9.25;96.42;101003.63;5007877;28;20637;-74